Sayre, Pennsylvania
Current Conditions -  °F | °C
As of 11:53 AM on Thursday 23 Oct 2014 (Local Time) from KELM Reporting Station
Overcast Overcast  
Wind Chill: 51°   Ceiling: 1800
Heat Index: 51°   Visibility: 10mi
Dew Point: 43°   Wind: 13mph
Humidity: 74%   Direction: 340°NNW
Pressure: 29.96"   Gusts: 18mph
Location:  41.99°N, 76.53°W
Report Text: KELM 231553Z 34011G16KT 10SM OVC018 11/06 A2996 RMK AO2 SLP146 T01060061
Loading
Personal Weather Stations






























Interactive Weather Map
Tropical Storm Tracking
New forecast layout! Learn more

10-Day Weather Forecast

Advertisements
Track Severe Weather on mobile